Time;durP1;ratioP1;P1;durP2;ratioP2;P2;SDS_P1;SDS_P2;PMS_P1;PMS_P2;Temp;Humidity;BMP_temperature;BMP_pressure;BME280_temperature;BME280_humidity;BME280_pressure;Samples;Min_cycle;Max_cycle;Signal;HPM_P1;HPM_P2
2022/07/26 00:00:31;;;;;;;3.25;2.95;;;18.60;99.90;;;;;;5247306;28;20540;-71
2022/07/26 00:03:02;;;;;;;3.50;2.92;;;18.60;99.90;;;;;;5229657;28;20040;-72
2022/07/26 00:05:36;;;;;;;4.15;3.67;;;18.60;99.90;;;;;;5248130;28;20032;-71
2022/07/26 00:08:09;;;;;;;3.72;3.40;;;18.30;99.90;;;;;;5251194;28;20052;-71
2022/07/26 00:10:47;;;;;;;5.55;3.85;;;18.20;99.90;;;;;;5233329;28;20368;-71
2022/07/26 00:13:19;;;;;;;4.00;3.60;;;18.30;99.90;;;;;;5251193;28;20027;-71
2022/07/26 00:15:51;;;;;;;4.25;3.80;;;18.40;99.90;;;;;;5233172;28;20034;-71
2022/07/26 00:18:22;;;;;;;3.28;2.83;;;18.10;99.90;;;;;;5250851;28;20422;-72
2022/07/26 00:20:53;;;;;;;4.90;3.70;;;18.20;99.90;;;;;;5250952;28;20021;-71
2022/07/26 00:23:24;;;;;;;4.55;3.30;;;18.10;99.90;;;;;;5251021;28;20012;-72
2022/07/26 00:25:55;;;;;;;4.70;4.13;;;18.30;99.90;;;;;;5250982;28;20028;-71
2022/07/26 00:28:26;;;;;;;4.50;3.58;;;18.20;99.90;;;;;;5250811;28;20030;-72
2022/07/26 00:30:56;;;;;;;3.85;3.40;;;18.40;99.90;;;;;;5250386;28;20506;-72
2022/07/26 00:33:27;;;;;;;4.25;3.53;;;18.50;99.90;;;;;;5250802;28;20078;-71
2022/07/26 00:35:58;;;;;;;3.88;3.35;;;18.40;99.90;;;;;;5250730;28;20499;-72
2022/07/26 00:38:29;;;;;;;3.30;3.03;;;18.70;99.90;;;;;;5250650;28;20366;-72
2022/07/26 00:40:59;;;;;;;4.00;3.17;;;18.50;99.90;;;;;;5250556;28;20103;-71
2022/07/26 00:43:30;;;;;;;3.08;2.88;;;18.30;99.90;;;;;;5250726;28;20433;-71
2022/07/26 00:46:02;;;;;;;3.30;3.00;;;18.40;99.90;;;;;;5250557;28;20017;-71
2022/07/26 00:48:33;;;;;;;5.05;3.25;;;18.40;99.90;;;;;;5250470;28;20052;-71
2022/07/26 00:51:03;;;;;;;3.67;3.38;;;18.40;99.90;;;;;;5250586;28;20448;-72
2022/07/26 00:53:34;;;;;;;3.63;2.67;;;18.40;99.90;;;;;;5249962;28;20021;-72
2022/07/26 00:56:05;;;;;;;3.40;3.10;;;18.60;99.90;;;;;;5250370;28;20024;-71
2022/07/26 00:58:36;;;;;;;3.53;2.97;;;18.40;99.90;;;;;;5250195;28;20032;-72
2022/07/26 01:01:07;;;;;;;3.00;2.70;;;18.30;99.90;;;;;;5249834;28;20049;-71
2022/07/26 01:03:38;;;;;;;3.70;3.40;;;17.80;99.90;;;;;;5250391;28;20054;-71
2022/07/26 01:06:09;;;;;;;4.35;3.90;;;17.90;99.90;;;;;;5232205;28;20017;-71
2022/07/26 01:08:40;;;;;;;5.05;3.85;;;17.80;99.90;;;;;;5250140;28;20024;-71
2022/07/26 01:11:11;;;;;;;5.13;4.35;;;17.90;99.90;;;;;;5250117;28;20458;-71
2022/07/26 01:13:49;;;;;;;4.38;3.83;;;17.90;99.90;;;;;;5250063;28;20048;-70
2022/07/26 01:16:20;;;;;;;3.72;3.35;;;18.10;99.90;;;;;;5250027;28;20484;-71
2022/07/26 01:18:51;;;;;;;3.83;3.53;;;18.20;99.90;;;;;;5250041;28;20041;-72
2022/07/26 01:21:22;;;;;;;4.57;3.58;;;18.10;99.90;;;;;;5249850;28;20027;-72
2022/07/26 01:23:53;;;;;;;4.63;3.80;;;18.10;99.90;;;;;;5249900;28;20032;-71
2022/07/26 01:26:24;;;;;;;4.03;3.30;;;18.20;99.90;;;;;;5249742;28;20025;-72
2022/07/26 01:28:54;;;;;;;4.43;3.30;;;18.30;99.90;;;;;;5249182;28;20012;-71
2022/07/26 01:31:25;;;;;;;4.65;2.92;;;18.40;99.90;;;;;;5249190;28;20068;-71
2022/07/26 01:33:56;;;;;;;4.53;2.85;;;18.50;99.90;;;;;;5249455;28;20071;-71
2022/07/26 01:36:27;;;;;;;3.15;2.83;;;18.30;99.90;;;;;;5249526;28;20068;-72
2022/07/26 01:38:58;;;;;;;4.53;2.92;;;18.10;99.90;;;;;;5249091;28;20063;-72
2022/07/26 01:41:29;;;;;;;3.60;3.30;;;18.00;99.90;;;;;;5249218;28;20023;-72
2022/07/26 01:44:00;;;;;;;4.82;3.00;;;18.10;99.90;;;;;;5249374;28;20020;-71
2022/07/26 01:46:31;;;;;;;4.38;3.20;;;17.90;99.90;;;;;;5231251;28;20452;-72
2022/07/26 01:49:03;;;;;;;2.53;2.33;;;17.90;99.90;;;;;;5249174;28;20019;-71
2022/07/26 01:51:34;;;;;;;3.25;2.95;;;17.80;99.90;;;;;;5249275;28;20029;-71
2022/07/26 01:54:05;;;;;;;3.08;2.88;;;18.10;99.90;;;;;;5231177;28;20013;-71
2022/07/26 01:56:36;;;;;;;3.53;3.22;;;17.80;99.90;;;;;;5249032;28;20033;-71
2022/07/26 01:59:07;;;;;;;3.03;2.72;;;17.80;99.90;;;;;;5248906;28;20035;-71
2022/07/26 02:01:37;;;;;;;2.90;2.70;;;17.90;99.90;;;;;;5230631;28;20105;-71
2022/07/26 02:04:57;;;;;;;4.22;2.88;;;17.90;99.90;;;;;;5248947;28;20036;-71
2022/07/26 02:06:59;;;;;;;3.35;3.05;;;17.90;99.90;;;;;;5248747;28;20472;-71
2022/07/26 02:09:30;;;;;;;3.20;2.97;;;17.80;99.90;;;;;;5248893;28;20020;-71
2022/07/26 02:12:02;;;;;;;3.70;3.40;;;17.80;99.90;;;;;;5248878;28;20032;-71
2022/07/26 02:14:33;;;;;;;4.75;3.45;;;17.40;99.90;;;;;;5248718;28;20025;-71
2022/07/26 02:17:04;;;;;;;3.60;3.30;;;17.40;99.90;;;;;;5248700;28;20387;-71
2022/07/26 02:19:35;;;;;;;3.70;3.40;;;17.50;99.90;;;;;;5248600;28;20032;-71
2022/07/26 02:22:06;;;;;;;3.70;3.40;;;17.60;99.90;;;;;;5230729;28;20047;-71
2022/07/26 02:24:36;;;;;;;3.78;3.47;;;17.50;99.90;;;;;;5248548;28;20468;-71
2022/07/26 02:27:07;;;;;;;4.50;3.28;;;17.50;99.90;;;;;;5248700;28;20028;-71
2022/07/26 02:29:38;;;;;;;4.03;3.67;;;17.50;99.90;;;;;;5248185;28;20043;-71
2022/07/26 02:32:10;;;;;;;3.90;3.60;;;17.30;99.90;;;;;;5248211;28;20441;-72
2022/07/26 02:34:40;;;;;;;6.35;3.35;;;17.30;99.90;;;;;;5248545;28;20036;-71
2022/07/26 02:37:11;;;;;;;4.72;3.35;;;17.40;99.90;;;;;;5248325;28;20139;-71
2022/07/26 02:39:42;;;;;;;3.78;3.45;;;17.30;99.90;;;;;;5248184;28;20036;-71
2022/07/26 02:42:13;;;;;;;4.25;3.53;;;17.30;99.90;;;;;;5248343;28;20483;-72
2022/07/26 02:44:44;;;;;;;4.55;3.25;;;17.40;99.90;;;;;;5248375;28;20012;-71
2022/07/26 02:47:15;;;;;;;4.55;3.53;;;17.40;99.90;;;;;;5230295;28;20142;-72
2022/07/26 02:49:45;;;;;;;3.22;2.92;;;17.50;99.90;;;;;;5248221;28;20043;-71
2022/07/26 02:52:17;;;;;;;3.83;3.22;;;17.60;99.90;;;;;;5248240;28;20020;-71
2022/07/26 02:54:47;;;;;;;4.35;3.13;;;17.30;99.90;;;;;;5248271;28;20460;-72
2022/07/26 02:57:18;;;;;;;5.10;3.28;;;17.50;99.90;;;;;;5248244;28;20028;-72
2022/07/26 02:59:49;;;;;;;3.33;3.03;;;17.70;99.90;;;;;;5247962;28;20036;-71
2022/07/26 03:02:20;;;;;;;3.10;2.88;;;17.70;99.90;;;;;;5247854;28;20040;-72
2022/07/26 03:04:50;;;;;;;4.97;2.97;;;17.50;99.90;;;;;;5248278;28;20108;-71
2022/07/26 03:07:21;;;;;;;3.25;2.95;;;17.30;99.90;;;;;;5247976;28;20016;-72
2022/07/26 03:09:52;;;;;;;3.20;2.90;;;17.40;99.90;;;;;;5248017;28;20047;-71
2022/07/26 03:12:24;;;;;;;2.80;2.50;;;17.40;99.90;;;;;;5247991;28;20060;-71
2022/07/26 03:14:54;;;;;;;4.40;3.08;;;17.20;99.90;;;;;;5248040;28;20511;-72
2022/07/26 03:17:25;;;;;;;3.78;2.60;;;16.90;99.90;;;;;;5247949;28;20060;-72
2022/07/26 03:19:56;;;;;;;3.20;2.95;;;17.20;99.90;;;;;;5247832;28;20460;-71
2022/07/26 03:22:27;;;;;;;3.33;3.03;;;17.10;99.90;;;;;;5230025;28;20031;-71
2022/07/26 03:24:58;;;;;;;3.47;3.10;;;17.20;99.90;;;;;;5248001;28;20439;-71
2022/07/26 03:27:29;;;;;;;5.03;3.08;;;17.30;99.90;;;;;;5247761;28;20021;-71
2022/07/26 03:30:00;;;;;;;4.05;3.30;;;17.10;99.90;;;;;;5247676;28;20457;-71
2022/07/26 03:32:30;;;;;;;4.55;3.17;;;17.10;99.90;;;;;;5247601;28;20072;-71
2022/07/26 03:35:01;;;;;;;3.58;3.08;;;17.30;99.90;;;;;;5229804;28;20408;-71
2022/07/26 03:37:33;;;;;;;3.47;3.15;;;17.50;99.90;;;;;;5247750;28;20024;-71
2022/07/26 03:40:06;;;;;;;3.03;2.80;;;17.60;99.90;;;;;;5247572;28;20037;-71
2022/07/26 03:42:37;;;;;;;3.88;2.90;;;17.20;99.90;;;;;;5251723;28;20496;-72
2022/07/26 03:45:08;;;;;;;5.47;2.63;;;17.60;99.90;;;;;;5233885;28;20028;-72
2022/07/26 03:47:39;;;;;;;3.30;3.00;;;17.70;99.90;;;;;;5251687;28;20024;-72
2022/07/26 03:50:12;;;;;;;3.45;3.15;;;17.60;99.90;;;;;;5251720;28;20405;-72
2022/07/26 03:52:43;;;;;;;3.70;3.28;;;17.50;99.90;;;;;;5251442;28;20016;-71
2022/07/26 03:58:03;;;;;;;4.30;2.53;;;17.70;99.90;;;;;;5251517;28;20578;-71
2022/07/26 04:00:34;;;;;;;3.58;2.80;;;17.90;99.90;;;;;;5233107;28;20053;-71
2022/07/26 04:03:04;;;;;;;3.42;3.13;;;17.90;99.90;;;;;;5251318;28;20100;-71
2022/07/26 04:05:35;;;;;;;3.80;3.20;;;17.70;99.90;;;;;;5251494;28;20048;-71
2022/07/26 04:08:06;;;;;;;4.35;2.97;;;17.90;99.90;;;;;;5251329;28;20482;-71
2022/07/26 04:10:37;;;;;;;3.72;3.17;;;17.90;99.90;;;;;;5251282;28;20035;-71
2022/07/26 04:13:08;;;;;;;3.88;3.55;;;17.90;99.90;;;;;;5251230;28;20027;-71
2022/07/26 04:15:38;;;;;;;6.47;3.40;;;17.70;99.90;;;;;;5251076;28;20028;-71
2022/07/26 04:18:09;;;;;;;5.25;3.60;;;17.60;99.90;;;;;;5250969;28;20059;-71
2022/07/26 04:20:41;;;;;;;4.65;3.20;;;17.70;99.90;;;;;;5233080;28;20035;-72
2022/07/26 04:23:12;;;;;;;4.85;3.40;;;17.90;99.90;;;;;;5233068;28;20064;-71
2022/07/26 04:25:43;;;;;;;3.40;3.10;;;17.80;99.90;;;;;;5250896;28;20063;-71
2022/07/26 04:28:14;;;;;;;3.75;2.90;;;17.90;99.90;;;;;;5250985;28;20440;-71
2022/07/26 04:30:45;;;;;;;3.13;2.83;;;18.10;99.90;;;;;;5250652;28;20029;-71
2022/07/26 04:33:16;;;;;;;3.17;2.97;;;18.00;99.90;;;;;;5250941;28;20029;-72
2022/07/26 04:35:46;;;;;;;4.07;2.92;;;18.00;99.90;;;;;;5250759;28;20028;-71
2022/07/26 04:38:17;;;;;;;4.75;3.25;;;18.10;99.90;;;;;;5250681;28;20349;-71
2022/07/26 04:40:50;;;;;;;3.50;3.30;;;18.00;99.90;;;;;;5250663;28;20440;-72
2022/07/26 04:43:21;;;;;;;3.38;3.17;;;18.00;99.90;;;;;;5250709;28;20087;-71
2022/07/26 04:45:52;;;;;;;3.88;3.47;;;18.10;99.90;;;;;;5250638;28;20036;-71
2022/07/26 04:48:23;;;;;;;3.42;3.13;;;18.00;99.90;;;;;;5250438;28;20025;-72
2022/07/26 04:50:54;;;;;;;3.90;3.60;;;18.50;99.90;;;;;;5232261;28;20091;-71
2022/07/26 04:53:25;;;;;;;3.58;3.25;;;18.40;99.90;;;;;;5250181;28;20052;-71
2022/07/26 04:55:55;;;;;;;3.83;3.50;;;18.60;99.90;;;;;;5250233;28;20024;-72
2022/07/26 04:58:26;;;;;;;3.10;2.80;;;18.60;99.90;;;;;;5250258;28;20480;-71
2022/07/26 05:00:58;;;;;;;3.53;2.88;;;18.70;99.90;;;;;;5231832;28;20472;-71
2022/07/26 05:03:29;;;;;;;3.97;3.00;;;18.90;99.90;;;;;;5250324;28;20601;-71
2022/07/26 05:06:00;;;;;;;4.07;3.00;;;19.00;99.90;;;;;;5250369;28;20037;-71
2022/07/26 05:08:30;;;;;;;3.95;2.95;;;18.90;99.90;;;;;;5250226;28;20028;-71
2022/07/26 05:11:02;;;;;;;3.50;3.20;;;19.00;99.90;;;;;;5232085;28;20028;-71
2022/07/26 05:13:33;;;;;;;4.10;3.40;;;19.10;99.90;;;;;;5250067;28;20017;-71
2022/07/26 05:16:04;;;;;;;4.50;3.42;;;19.30;99.90;;;;;;5232026;28;20081;-71
2022/07/26 05:18:35;;;;;;;4.93;3.50;;;19.70;99.90;;;;;;5249724;28;20079;-71
2022/07/26 05:21:06;;;;;;;7.15;4.00;;;19.90;99.90;;;;;;5249957;28;20065;-72
2022/07/26 05:23:37;;;;;;;4.70;3.20;;;20.00;99.90;;;;;;5249825;28;20013;-72
2022/07/26 05:26:09;;;;;;;4.10;3.70;;;20.20;99.90;;;;;;5249740;28;20024;-71
2022/07/26 05:28:40;;;;;;;7.63;3.50;;;20.50;99.90;;;;;;5249698;28;20435;-71
2022/07/26 05:31:11;;;;;;;6.35;3.38;;;21.00;99.90;;;;;;5231529;28;20040;-72
2022/07/26 05:33:42;;;;;;;4.32;3.38;;;20.90;99.90;;;;;;5231611;28;20433;-72
2022/07/26 05:36:13;;;;;;;4.82;3.08;;;21.00;99.90;;;;;;5249630;28;20024;-71
2022/07/26 05:38:43;;;;;;;4.78;3.28;;;21.50;99.90;;;;;;5249021;28;20025;-72
2022/07/26 05:41:14;;;;;;;5.75;3.88;;;22.00;99.90;;;;;;5249035;28;20031;-71
2022/07/26 05:43:45;;;;;;;4.35;3.95;;;22.30;99.90;;;;;;5249136;28;20082;-72
2022/07/26 05:46:16;;;;;;;5.82;5.22;;;23.00;99.90;;;;;;5249092;28;20403;-72
2022/07/26 05:48:47;;;;;;;8.48;5.25;;;23.60;99.90;;;;;;5248583;28;20483;-72
2022/07/26 05:51:17;;;;;;;8.02;5.45;;;23.90;99.90;;;;;;5248926;28;20031;-72
2022/07/26 05:53:48;;;;;;;7.63;5.50;;;24.30;99.90;;;;;;5248783;28;20012;-72
2022/07/26 05:56:19;;;;;;;6.20;5.60;;;24.30;99.90;;;;;;5248718;28;20056;-72
2022/07/26 05:58:50;;;;;;;7.53;5.35;;;24.30;99.90;;;;;;5230827;28;20035;-72
2022/07/26 06:01:21;;;;;;;8.32;5.80;;;24.20;99.90;;;;;;5248472;28;20083;-72
2022/07/26 06:03:51;;;;;;;6.35;5.75;;;24.30;99.90;;;;;;5229654;28;20387;-72
2022/07/26 06:06:22;;;;;;;8.13;6.35;;;24.30;99.90;;;;;;5248655;28;20158;-72
2022/07/26 06:08:54;;;;;;;9.95;5.90;;;24.10;99.90;;;;;;5248724;28;20044;-71
2022/07/26 06:11:25;;;;;;;9.55;5.80;;;24.30;99.90;;;;;;5248862;28;20547;-71
2022/07/26 06:13:55;;;;;;;7.40;5.97;;;24.50;99.90;;;;;;5248653;28;20056;-72
2022/07/26 06:16:26;;;;;;;6.22;5.63;;;24.30;99.90;;;;;;5248756;28;20033;-72
2022/07/26 06:18:57;;;;;;;8.80;6.40;;;24.10;99.90;;;;;;5248537;28;20028;-71
2022/07/26 06:21:28;;;;;;;10.63;6.40;;;24.00;99.90;;;;;;5248460;28;20384;-72
2022/07/26 06:23:59;;;;;;;7.80;6.30;;;24.00;99.90;;;;;;5248543;28;20032;-72
2022/07/26 06:26:29;;;;;;;8.07;5.80;;;23.90;99.90;;;;;;5248609;28;20033;-72
2022/07/26 06:29:00;;;;;;;7.00;6.30;;;24.40;99.90;;;;;;5248580;28;20024;-73
2022/07/26 06:31:31;;;;;;;9.27;5.20;;;24.40;99.90;;;;;;5247908;28;20107;-72
2022/07/26 06:34:02;;;;;;;8.73;4.95;;;24.80;99.90;;;;;;5248370;28;20024;-72
2022/07/26 06:36:33;;;;;;;8.02;5.53;;;25.60;99.90;;;;;;5248181;28;20027;-72
2022/07/26 06:39:03;;;;;;;7.97;5.18;;;25.60;99.90;;;;;;5247933;28;20035;-72
2022/07/26 06:41:34;;;;;;;9.60;5.25;;;26.20;99.90;;;;;;5248219;28;20027;-72
2022/07/26 06:44:05;;;;;;;8.30;5.28;;;25.40;99.90;;;;;;5248237;28;20099;-72
2022/07/26 06:46:36;;;;;;;8.23;5.40;;;25.00;99.90;;;;;;5230375;28;20078;-72
2022/07/26 06:49:07;;;;;;;9.13;5.47;;;25.30;99.90;;;;;;5248060;28;20438;-71
2022/07/26 06:51:38;;;;;;;8.57;5.32;;;25.50;99.90;;;;;;5248163;28;20380;-72
2022/07/26 06:54:08;;;;;;;5.63;4.95;;;25.80;99.90;;;;;;5247476;28;20036;-71
2022/07/26 06:56:40;;;;;;;8.45;5.78;;;25.70;99.90;;;;;;5247953;28;20013;-71
2022/07/26 06:59:11;;;;;;;10.90;5.07;;;25.80;99.90;;;;;;5247864;28;20043;-71
2022/07/26 07:01:42;;;;;;;8.13;5.05;;;26.30;99.90;;;;;;5247381;28;20060;-72
2022/07/26 07:04:13;;;;;;;6.50;4.63;;;26.30;99.90;;;;;;5230297;28;20043;-72
2022/07/26 07:06:43;;;;;;;14.32;5.28;;;26.20;99.90;;;;;;5248171;28;20012;-72
2022/07/26 07:09:14;;;;;;;6.28;5.03;;;26.20;99.90;;;;;;5248018;28;20082;-71
2022/07/26 07:11:48;;;;;;;5.72;4.82;;;26.80;99.90;;;;;;5248157;28;20077;-72
2022/07/26 07:14:18;;;;;;;7.20;4.85;;;27.10;99.90;;;;;;5248350;28;20430;-71
2022/07/26 07:16:49;;;;;;;6.38;4.97;;;27.00;99.90;;;;;;5252339;28;20025;-71
2022/07/26 07:19:20;;;;;;;9.52;4.47;;;26.60;99.90;;;;;;5251851;28;20045;-72
2022/07/26 07:21:51;;;;;;;6.70;4.60;;;26.60;99.90;;;;;;5251961;28;20099;-71
2022/07/26 07:24:22;;;;;;;9.65;5.13;;;26.00;99.90;;;;;;5251782;28;20017;-72
2022/07/26 07:26:53;;;;;;;6.88;4.57;;;26.20;99.90;;;;;;5251956;28;20145;-71
2022/07/26 07:29:24;;;;;;;5.30;4.65;;;26.20;99.90;;;;;;5251954;28;20510;-72
2022/07/26 07:31:55;;;;;;;9.10;4.72;;;26.40;99.90;;;;;;5251741;28;20090;-71
2022/07/26 07:34:26;;;;;;;7.45;4.65;;;26.40;99.90;;;;;;5251909;28;20024;-71
2022/07/26 07:36:57;;;;;;;7.25;4.53;;;26.60;99.90;;;;;;5251619;28;20027;-72
2022/07/26 07:39:28;;;;;;;5.63;4.30;;;26.60;99.90;;;;;;5251582;28;20040;-71
2022/07/26 07:41:59;;;;;;;6.15;4.47;;;27.30;99.90;;;;;;5251583;28;20021;-71
2022/07/26 07:44:29;;;;;;;6.63;4.10;;;27.40;99.90;;;;;;5251715;28;20028;-71
2022/07/26 07:47:00;;;;;;;6.80;4.50;;;27.00;99.90;;;;;;5250692;28;20149;-72
2022/07/26 07:49:31;;;;;;;8.13;4.30;;;27.30;99.90;;;;;;5251788;28;20033;-71
2022/07/26 07:52:02;;;;;;;7.57;4.10;;;27.40;99.90;;;;;;5251268;28;20008;-71
2022/07/26 07:54:33;;;;;;;9.07;4.38;;;27.30;99.90;;;;;;5233645;28;20031;-72
2022/07/26 07:57:04;;;;;;;8.13;4.28;;;27.70;99.90;;;;;;5251347;28;20022;-71
2022/07/26 07:59:35;;;;;;;7.72;4.32;;;28.10;99.90;;;;;;5251145;28;20093;-72
2022/07/26 08:02:06;;;;;;;7.30;4.25;;;28.20;99.90;;;;;;5251024;28;20258;-71
2022/07/26 08:04:37;;;;;;;6.97;4.20;;;27.50;99.90;;;;;;5251349;28;20511;-71
2022/07/26 08:07:08;;;;;;;10.60;4.50;;;27.00;99.90;;;;;;5251262;28;20042;-72
2022/07/26 08:09:39;;;;;;;4.90;4.15;;;27.20;99.90;;;;;;5251190;28;20028;-71
2022/07/26 08:12:10;;;;;;;7.43;3.90;;;27.20;99.90;;;;;;5251072;28;20019;-72
2022/07/26 08:14:41;;;;;;;5.32;3.50;;;27.60;99.90;;;;;;5251130;28;20031;-71
2022/07/26 08:17:11;;;;;;;5.35;3.53;;;27.70;99.90;;;;;;5250969;28;20012;-71
2022/07/26 08:19:42;;;;;;;3.88;3.50;;;28.00;99.90;;;;;;5250915;28;20036;-71
2022/07/26 08:22:13;;;;;;;7.63;4.07;;;28.30;99.90;;;;;;5250956;28;20415;-71
2022/07/26 08:24:45;;;;;;;8.57;4.47;;;27.70;99.90;;;;;;5250910;28;20032;-71
2022/07/26 08:27:16;;;;;;;6.75;4.00;;;28.30;99.90;;;;;;5250078;28;20017;-71
2022/07/26 08:29:47;;;;;;;7.60;3.80;;;27.90;99.90;;;;;;5250788;28;20598;-71
2022/07/26 08:32:19;;;;;;;5.97;3.85;;;28.10;99.90;;;;;;5250735;28;20058;-71
2022/07/26 08:34:49;;;;;;;7.38;3.65;;;28.30;99.90;;;;;;5250843;28;20372;-71
2022/07/26 08:37:20;;;;;;;5.95;4.10;;;28.30;99.90;;;;;;5232738;28;20082;-71
2022/07/26 08:39:51;;;;;;;6.90;3.85;;;28.60;99.90;;;;;;5250450;28;20033;-71
2022/07/26 08:42:22;;;;;;;5.35;3.40;;;28.50;99.90;;;;;;5232443;28;20024;-71
2022/07/26 08:44:53;;;;;;;7.55;3.63;;;28.80;99.90;;;;;;5250304;28;20028;-71
2022/07/26 08:47:23;;;;;;;7.63;3.60;;;29.00;99.90;;;;;;5249982;28;20026;-71
2022/07/26 08:49:54;;;;;;;5.13;3.05;;;28.70;99.90;;;;;;5250318;28;20123;-71
2022/07/26 08:52:25;;;;;;;6.68;3.35;;;28.80;99.90;;;;;;5250317;28;20598;-71
2022/07/26 08:54:56;;;;;;;6.28;3.20;;;28.90;99.90;;;;;;5250419;28;20028;-71
2022/07/26 08:57:26;;;;;;;6.53;3.65;;;29.10;99.90;;;;;;5250129;28;20422;-71
2022/07/26 09:00:14;;;;;;;6.78;3.53;;;29.10;99.90;;;;;;5249951;28;20411;-73
2022/07/26 09:02:45;;;;;;;4.93;3.47;;;29.10;99.90;;;;;;5249977;28;20131;-72
2022/07/26 09:05:25;;;;;;;6.65;3.55;;;29.10;99.90;;;;;;5249895;28;20043;-72
2022/07/26 09:07:57;;;;;;;8.10;4.03;;;28.80;99.90;;;;;;5232064;28;20119;-72
2022/07/26 09:10:33;;;;;;;5.95;3.70;;;28.70;99.90;;;;;;5249832;28;20033;-72
2022/07/26 09:13:04;;;;;;;8.25;3.70;;;28.90;99.90;;;;;;5249900;28;20367;-72
2022/07/26 09:15:34;;;;;;;7.60;3.42;;;28.80;99.90;;;;;;5249740;28;20025;-72
2022/07/26 09:18:05;;;;;;;7.03;2.85;;;29.50;99.90;;;;;;5231637;28;20020;-72
2022/07/26 09:20:45;;;;;;;4.63;3.03;;;29.30;99.90;;;;;;5249442;28;20024;-72
2022/07/26 09:23:16;;;;;;;7.68;3.55;;;29.10;99.90;;;;;;5249863;28;20048;-71
2022/07/26 09:25:47;;;;;;;7.47;3.40;;;28.90;99.90;;;;;;5249893;28;20063;-72
2022/07/26 09:28:22;;;;;;;8.95;3.20;;;29.30;99.90;;;;;;5249568;28;20028;-72
2022/07/26 09:30:54;;;;;;;3.30;2.90;;;29.20;99.90;;;;;;5249462;28;20024;-72
2022/07/26 09:33:26;;;;;;;6.35;3.90;;;29.20;99.90;;;;;;5231579;28;20429;-72
2022/07/26 09:36:05;;;;;;;7.25;3.58;;;29.00;99.90;;;;;;5249586;28;20028;-71
2022/07/26 09:38:47;;;;;;;6.30;4.00;;;29.40;99.90;;;;;;5247846;28;20387;-72
2022/07/26 09:41:25;;;;;;;6.07;3.60;;;29.30;99.90;;;;;;5249413;28;20368;-72
2022/07/26 09:44:01;;;;;;;6.22;3.45;;;29.00;99.90;;;;;;5249395;28;20065;-71
2022/07/26 09:46:34;;;;;;;8.00;3.38;;;29.10;99.90;;;;;;5249391;28;20017;-71
2022/07/26 09:49:18;;;;;;;7.88;3.60;;;29.10;99.90;;;;;;5249419;28;20071;-72
2022/07/26 09:51:51;;;;;;;6.10;3.55;;;29.30;99.90;;;;;;5249162;28;20023;-72
2022/07/26 09:54:28;;;;;;;8.00;3.50;;;29.80;99.90;;;;;;5249204;28;20017;-72
2022/07/26 09:56:59;;;;;;;5.85;3.60;;;29.20;99.90;;;;;;5231036;28;20456;-72
2022/07/26 09:59:30;;;;;;;6.22;3.40;;;29.80;99.90;;;;;;5248980;28;20132;-72
2022/07/26 10:02:01;;;;;;;6.72;3.60;;;29.90;99.90;;;;;;5248542;28;20135;-72
2022/07/26 10:04:32;;;;;;;7.93;3.70;;;29.80;99.90;;;;;;5249097;28;20021;-72
2022/07/26 10:07:03;;;;;;;9.27;4.05;;;29.50;99.90;;;;;;5248870;28;20092;-72
2022/07/26 10:10:00;;;;;;;6.97;3.20;;;30.10;99.90;;;;;;5248766;28;20111;-73
2022/07/26 10:12:32;;;;;;;6.18;3.40;;;30.00;99.90;;;;;;5248879;28;20025;-72
2022/07/26 10:15:03;;;;;;;6.72;3.83;;;29.60;99.90;;;;;;5230918;28;20484;-73
2022/07/26 10:17:40;;;;;;;5.97;2.97;;;30.30;99.90;;;;;;5248600;28;20027;-72
2022/07/26 10:20:41;;;;;;;6.72;3.25;;;30.40;99.90;;;;;;5230544;28;20028;-72
2022/07/26 10:23:41;;;;;;;5.15;3.30;;;29.60;99.90;;;;;;5248712;28;20024;-72
2022/07/26 10:26:30;;;;;;;8.38;3.00;;;29.30;99.90;;;;;;5248607;28;20028;-72
2022/07/26 10:29:16;;;;;;;8.15;3.72;;;29.60;99.90;;;;;;5248522;28;20085;-72
2022/07/26 10:32:05;;;;;;;4.57;3.38;;;29.20;99.90;;;;;;5248282;28;20067;-72
2022/07/26 10:34:38;;;;;;;7.75;3.30;;;30.20;99.90;;;;;;5230600;28;20032;-72
2022/07/26 10:37:20;;;;;;;5.30;2.80;;;29.90;99.90;;;;;;5248325;28;20032;-72
2022/07/26 10:40:13;;;;;;;6.10;2.95;;;30.40;99.90;;;;;;5248325;28;20358;-72
2022/07/26 10:42:44;;;;;;;3.85;2.83;;;30.20;99.90;;;;;;5248209;28;20020;-72
2022/07/26 10:45:21;;;;;;;6.55;3.30;;;30.00;99.90;;;;;;5230078;28;20028;-72
2022/07/26 10:48:18;;;;;;;5.00;2.75;;;30.20;99.90;;;;;;5248039;28;20024;-72
2022/07/26 10:50:53;;;;;;;5.68;2.70;;;30.40;99.90;;;;;;5247862;28;20099;-72
2022/07/26 10:53:26;;;;;;;5.32;2.92;;;30.80;99.90;;;;;;5248191;28;20024;-73
2022/07/26 10:55:57;;;;;;;5.50;2.92;;;29.60;99.90;;;;;;5247999;28;20021;-72
2022/07/26 10:58:41;;;;;;;7.97;3.10;;;30.10;99.90;;;;;;5247829;28;20039;-72
2022/07/26 11:01:12;;;;;;;6.35;3.03;;;30.30;99.90;;;;;;5248070;28;20095;-72
2022/07/26 11:03:43;;;;;;;7.63;2.67;;;30.00;99.90;;;;;;5248057;28;20409;-73
2022/07/26 11:06:18;;;;;;;8.85;2.67;;;30.20;99.90;;;;;;5247889;28;20029;-72
2022/07/26 11:08:49;;;;;;;3.58;2.70;;;30.80;99.90;;;;;;5247942;28;20472;-73
2022/07/26 11:11:32;;;;;;;6.90;3.05;;;30.90;99.90;;;;;;5247880;28;20041;-73
2022/07/26 11:14:05;;;;;;;9.73;2.70;;;30.70;99.90;;;;;;5247936;28;20070;-72
2022/07/26 11:16:44;;;;;;;13.35;3.38;;;30.30;99.90;;;;;;5247780;28;20021;-72
2022/07/26 11:19:23;;;;;;;4.85;2.58;;;29.90;99.90;;;;;;5248019;28;20052;-72
2022/07/26 11:21:57;;;;;;;5.55;3.17;;;30.70;99.90;;;;;;5247702;28;20029;-72
2022/07/26 11:24:28;;;;;;;9.07;2.67;;;30.60;99.90;;;;;;5247768;28;20016;-72
2022/07/26 11:27:03;;;;;;;4.95;2.95;;;30.50;99.90;;;;;;5248003;28;20360;-72
2022/07/26 11:29:36;;;;;;;17.50;2.72;;;31.20;99.90;;;;;;5229633;28;20424;-72
2022/07/26 11:32:27;;;;;;;9.25;2.70;;;30.80;99.90;;;;;;5247805;28;20024;-71
2022/07/26 11:34:59;;;;;;;5.45;2.83;;;30.20;99.90;;;;;;5229531;28;20040;-72
2022/07/26 11:37:30;;;;;;;7.40;3.08;;;30.10;99.90;;;;;;5247718;28;20385;-72
2022/07/26 11:40:01;;;;;;;8.32;2.95;;;31.10;99.90;;;;;;5247627;28;20435;-72
2022/07/26 11:42:32;;;;;;;5.38;2.38;;;31.30;99.90;;;;;;5247783;28;20052;-72
2022/07/26 11:45:03;;;;;;;7.80;2.60;;;30.30;99.90;;;;;;5229823;28;20468;-72
2022/07/26 11:47:34;;;;;;;7.70;2.90;;;30.30;99.90;;;;;;5229802;28;20029;-72
2022/07/26 11:50:05;;;;;;;5.80;2.70;;;30.80;99.90;;;;;;5247528;28;20016;-72
2022/07/26 11:52:36;;;;;;;8.52;2.90;;;30.30;99.90;;;;;;5247494;28;20091;-72
2022/07/26 11:55:08;;;;;;;9.27;2.35;;;29.20;99.90;;;;;;5247390;28;20411;-72
2022/07/26 11:57:38;;;;;;;5.50;2.90;;;29.20;99.90;;;;;;5247482;28;20051;-72
2022/07/26 12:00:10;;;;;;;3.13;2.55;;;30.10;99.90;;;;;;5247050;28;20066;-72
2022/07/26 12:02:41;;;;;;;4.70;2.55;;;31.00;99.90;;;;;;5249438;28;20102;-72
2022/07/26 12:05:21;;;;;;;8.45;2.40;;;30.10;99.90;;;;;;5233268;28;20040;-72
2022/07/26 12:07:59;;;;;;;16.67;3.10;;;31.10;99.90;;;;;;5251123;28;20028;-72
2022/07/26 12:10:30;;;;;;;8.80;2.40;;;30.40;99.90;;;;;;5251010;28;20027;-72
2022/07/26 12:13:12;;;;;;;5.35;2.72;;;30.00;99.90;;;;;;5251119;28;20464;-72
2022/07/26 12:15:44;;;;;;;5.90;2.53;;;30.10;99.90;;;;;;5251073;28;20388;-72
2022/07/26 12:18:26;;;;;;;3.95;2.33;;;30.90;99.90;;;;;;5250658;28;20464;-72
2022/07/26 12:20:58;;;;;;;6.55;2.25;;;30.70;99.90;;;;;;5250655;28;20037;-72
2022/07/26 12:23:48;;;;;;;8.60;2.28;;;30.40;99.90;;;;;;5250907;28;20527;-72
2022/07/26 12:26:25;;;;;;;5.57;2.25;;;30.60;99.90;;;;;;5250636;28;20111;-72
2022/07/26 12:28:58;;;;;;;3.53;2.20;;;30.70;99.90;;;;;;5250712;28;20419;-72
2022/07/26 12:31:31;;;;;;;6.20;2.50;;;29.40;99.90;;;;;;5232425;28;20031;-72
2022/07/26 12:34:01;;;;;;;6.97;2.60;;;30.30;99.90;;;;;;5250295;28;20557;-72
2022/07/26 12:36:33;;;;;;;5.25;2.58;;;30.40;99.90;;;;;;5250022;28;20099;-72
2022/07/26 12:39:04;;;;;;;5.20;2.80;;;30.80;99.90;;;;;;5250334;28;20040;-72
2022/07/26 12:41:37;;;;;;;5.20;2.78;;;30.50;99.90;;;;;;5232087;28;20017;-72
2022/07/26 12:44:11;;;;;;;4.80;2.65;;;30.20;99.90;;;;;;5250147;28;20039;-72
2022/07/26 12:46:45;;;;;;;6.65;2.58;;;30.50;99.90;;;;;;5250004;28;20036;-72
2022/07/26 12:49:16;;;;;;;5.70;2.30;;;29.90;99.90;;;;;;5250381;28;20033;-72
2022/07/26 12:51:47;;;;;;;7.15;2.60;;;30.50;99.90;;;;;;5250241;28;20025;-72
2022/07/26 12:54:18;;;;;;;7.28;2.60;;;30.90;99.90;;;;;;5250055;28;20028;-72
2022/07/26 12:56:48;;;;;;;5.15;2.60;;;30.40;99.90;;;;;;5250047;28;20021;-72
2022/07/26 12:59:19;;;;;;;7.50;2.22;;;30.50;99.90;;;;;;5232105;28;20041;-72
2022/07/26 13:01:51;;;;;;;6.90;2.40;;;30.80;99.90;;;;;;5249494;28;20049;-72
2022/07/26 13:04:22;;;;;;;6.20;2.53;;;30.60;99.90;;;;;;5250011;28;20119;-72
2022/07/26 13:06:53;;;;;;;5.15;2.20;;;30.80;99.90;;;;;;5249787;28;20547;-72
2022/07/26 13:09:24;;;;;;;6.35;2.50;;;29.90;99.90;;;;;;5249815;28;20035;-72
2022/07/26 13:11:55;;;;;;;5.18;2.40;;;30.50;99.90;;;;;;5249837;28;20020;-72
2022/07/26 13:14:26;;;;;;;2.90;1.98;;;30.80;99.90;;;;;;5249604;28;20017;-72